sensor_id;sensor_type;location;lat;lon;timestamp;P1;durP1;ratioP1;P2;durP2;ratioP2
78612;SDS011;67933;51.060;3.638;2023-03-12T00:01:23;7.28;;;3.03;;
78612;SDS011;67933;51.060;3.638;2023-03-12T00:03:51;5.97;;;3.22;;
78612;SDS011;67933;51.060;3.638;2023-03-12T00:06:18;5.80;;;3.25;;
78612;SDS011;67933;51.060;3.638;2023-03-12T00:08:45;6.78;;;3.05;;
78612;SDS011;67933;51.060;3.638;2023-03-12T00:11:12;6.10;;;2.60;;
78612;SDS011;67933;51.060;3.638;2023-03-12T00:13:39;4.20;;;2.58;;
78612;SDS011;67933;51.060;3.638;2023-03-12T00:16:09;6.07;;;3.40;;
78612;SDS011;67933;51.060;3.638;2023-03-12T00:18:36;6.60;;;3.10;;
78612;SDS011;67933;51.060;3.638;2023-03-12T00:21:02;4.60;;;2.50;;
78612;SDS011;67933;51.060;3.638;2023-03-12T00:23:28;7.32;;;3.70;;
78612;SDS011;67933;51.060;3.638;2023-03-12T00:25:57;6.32;;;2.38;;
78612;SDS011;67933;51.060;3.638;2023-03-12T00:28:24;4.57;;;2.53;;
78612;SDS011;67933;51.060;3.638;2023-03-12T00:30:49;5.72;;;2.20;;
78612;SDS011;67933;51.060;3.638;2023-03-12T00:33:17;4.75;;;2.38;;
78612;SDS011;67933;51.060;3.638;2023-03-12T00:35:42;5.07;;;2.72;;
78612;SDS011;67933;51.060;3.638;2023-03-12T00:38:08;3.95;;;2.42;;
78612;SDS011;67933;51.060;3.638;2023-03-12T00:40:34;5.22;;;2.40;;
78612;SDS011;67933;51.060;3.638;2023-03-12T00:42:59;3.75;;;2.65;;
78612;SDS011;67933;51.060;3.638;2023-03-12T00:45:24;6.57;;;2.78;;
78612;SDS011;67933;51.060;3.638;2023-03-12T00:47:50;7.15;;;2.97;;
78612;SDS011;67933;51.060;3.638;2023-03-12T00:50:15;6.10;;;2.63;;
78612;SDS011;67933;51.060;3.638;2023-03-12T00:52:41;6.53;;;2.50;;
78612;SDS011;67933;51.060;3.638;2023-03-12T00:55:06;4.32;;;2.65;;
78612;SDS011;67933;51.060;3.638;2023-03-12T00:57:32;7.57;;;2.53;;
78612;SDS011;67933;51.060;3.638;2023-03-12T01:00:00;8.02;;;3.50;;
78612;SDS011;67933;51.060;3.638;2023-03-12T01:02:25;3.83;;;2.40;;
78612;SDS011;67933;51.060;3.638;2023-03-12T01:04:51;5.53;;;3.08;;
78612;SDS011;67933;51.060;3.638;2023-03-12T01:07:16;3.85;;;2.03;;
78612;SDS011;67933;51.060;3.638;2023-03-12T01:09:42;4.47;;;2.83;;
78612;SDS011;67933;51.060;3.638;2023-03-12T01:12:07;5.95;;;3.08;;
78612;SDS011;67933;51.060;3.638;2023-03-12T01:14:32;10.63;;;3.33;;
78612;SDS011;67933;51.060;3.638;2023-03-12T01:16:59;3.22;;;2.60;;
78612;SDS011;67933;51.060;3.638;2023-03-12T01:19:24;6.55;;;3.25;;
78612;SDS011;67933;51.060;3.638;2023-03-12T01:21:50;5.68;;;2.90;;
78612;SDS011;67933;51.060;3.638;2023-03-12T01:24:16;5.28;;;2.80;;
78612;SDS011;67933;51.060;3.638;2023-03-12T01:26:41;7.35;;;2.58;;
78612;SDS011;67933;51.060;3.638;2023-03-12T01:29:07;6.25;;;2.47;;
78612;SDS011;67933;51.060;3.638;2023-03-12T01:31:32;4.72;;;2.55;;
78612;SDS011;67933;51.060;3.638;2023-03-12T01:33:57;6.72;;;2.22;;
78612;SDS011;67933;51.060;3.638;2023-03-12T01:36:24;5.25;;;2.70;;
78612;SDS011;67933;51.060;3.638;2023-03-12T01:38:51;4.15;;;2.35;;
78612;SDS011;67933;51.060;3.638;2023-03-12T01:41:19;6.43;;;2.40;;
78612;SDS011;67933;51.060;3.638;2023-03-12T01:43:45;5.03;;;1.95;;
78612;SDS011;67933;51.060;3.638;2023-03-12T01:49:05;6.28;;;2.75;;
78612;SDS011;67933;51.060;3.638;2023-03-12T01:51:35;6.68;;;2.97;;
78612;SDS011;67933;51.060;3.638;2023-03-12T01:54:04;11.68;;;2.72;;
78612;SDS011;67933;51.060;3.638;2023-03-12T01:56:36;8.63;;;2.97;;
78612;SDS011;67933;51.060;3.638;2023-03-12T01:59:07;7.18;;;2.90;;
78612;SDS011;67933;51.060;3.638;2023-03-12T02:01:36;7.80;;;3.38;;
78612;SDS011;67933;51.060;3.638;2023-03-12T02:04:03;11.38;;;3.03;;
78612;SDS011;67933;51.060;3.638;2023-03-12T02:06:40;5.50;;;3.30;;
78612;SDS011;67933;51.060;3.638;2023-03-12T02:09:13;4.82;;;2.60;;
78612;SDS011;67933;51.060;3.638;2023-03-12T02:11:39;5.68;;;3.35;;
78612;SDS011;67933;51.060;3.638;2023-03-12T02:14:05;5.50;;;3.00;;
78612;SDS011;67933;51.060;3.638;2023-03-12T02:16:30;7.57;;;3.92;;
78612;SDS011;67933;51.060;3.638;2023-03-12T02:18:56;5.25;;;3.13;;
78612;SDS011;67933;51.060;3.638;2023-03-12T02:21:26;8.25;;;3.58;;
78612;SDS011;67933;51.060;3.638;2023-03-12T02:26:48;6.55;;;2.90;;
78612;SDS011;67933;51.060;3.638;2023-03-12T02:29:14;4.70;;;2.78;;
78612;SDS011;67933;51.060;3.638;2023-03-12T02:31:44;8.57;;;3.20;;
78612;SDS011;67933;51.060;3.638;2023-03-12T02:34:16;5.13;;;2.75;;
78612;SDS011;67933;51.060;3.638;2023-03-12T02:36:42;5.57;;;3.20;;
78612;SDS011;67933;51.060;3.638;2023-03-12T02:39:08;5.88;;;2.97;;
78612;SDS011;67933;51.060;3.638;2023-03-12T02:41:37;5.82;;;2.58;;
78612;SDS011;67933;51.060;3.638;2023-03-12T02:44:07;5.18;;;2.70;;
78612;SDS011;67933;51.060;3.638;2023-03-12T02:46:41;5.13;;;2.78;;
78612;SDS011;67933;51.060;3.638;2023-03-12T02:49:11;5.85;;;2.72;;
78612;SDS011;67933;51.060;3.638;2023-03-12T02:51:38;2.60;;;2.38;;
78612;SDS011;67933;51.060;3.638;2023-03-12T02:54:04;4.72;;;3.03;;
78612;SDS011;67933;51.060;3.638;2023-03-12T02:56:29;4.82;;;2.78;;
78612;SDS011;67933;51.060;3.638;2023-03-12T02:58:55;6.35;;;3.17;;
78612;SDS011;67933;51.060;3.638;2023-03-12T03:01:20;4.82;;;2.50;;
78612;SDS011;67933;51.060;3.638;2023-03-12T03:03:46;5.97;;;3.00;;
78612;SDS011;67933;51.060;3.638;2023-03-12T03:06:11;8.88;;;3.13;;
78612;SDS011;67933;51.060;3.638;2023-03-12T03:08:37;5.97;;;2.65;;
78612;SDS011;67933;51.060;3.638;2023-03-12T03:11:03;6.15;;;2.83;;
78612;SDS011;67933;51.060;3.638;2023-03-12T03:13:29;7.32;;;2.92;;
78612;SDS011;67933;51.060;3.638;2023-03-12T03:15:55;8.45;;;3.00;;
78612;SDS011;67933;51.060;3.638;2023-03-12T03:18:25;5.90;;;3.20;;
78612;SDS011;67933;51.060;3.638;2023-03-12T03:20:58;7.63;;;3.28;;
78612;SDS011;67933;51.060;3.638;2023-03-12T03:23:26;8.85;;;2.92;;
78612;SDS011;67933;51.060;3.638;2023-03-12T03:25:53;9.10;;;3.90;;
78612;SDS011;67933;51.060;3.638;2023-03-12T03:28:20;4.93;;;2.70;;
78612;SDS011;67933;51.060;3.638;2023-03-12T03:30:46;9.73;;;3.45;;
78612;SDS011;67933;51.060;3.638;2023-03-12T03:33:12;8.20;;;3.55;;
78612;SDS011;67933;51.060;3.638;2023-03-12T03:35:37;8.48;;;3.78;;
78612;SDS011;67933;51.060;3.638;2023-03-12T03:38:03;5.53;;;3.13;;
78612;SDS011;67933;51.060;3.638;2023-03-12T03:40:28;8.02;;;3.25;;
78612;SDS011;67933;51.060;3.638;2023-03-12T03:42:54;7.70;;;3.53;;
78612;SDS011;67933;51.060;3.638;2023-03-12T03:45:19;5.15;;;3.25;;
78612;SDS011;67933;51.060;3.638;2023-03-12T03:47:45;5.43;;;3.53;;
78612;SDS011;67933;51.060;3.638;2023-03-12T03:50:10;8.35;;;4.28;;
78612;SDS011;67933;51.060;3.638;2023-03-12T03:52:36;7.18;;;3.55;;
78612;SDS011;67933;51.060;3.638;2023-03-12T03:55:01;10.95;;;4.90;;
78612;SDS011;67933;51.060;3.638;2023-03-12T03:57:27;9.98;;;4.72;;
78612;SDS011;67933;51.060;3.638;2023-03-12T03:59:53;6.97;;;4.35;;
78612;SDS011;67933;51.060;3.638;2023-03-12T04:02:18;7.85;;;4.50;;
78612;SDS011;67933;51.060;3.638;2023-03-12T04:04:44;8.65;;;4.93;;
78612;SDS011;67933;51.060;3.638;2023-03-12T04:07:09;11.63;;;4.65;;
78612;SDS011;67933;51.060;3.638;2023-03-12T04:09:35;10.13;;;4.88;;
78612;SDS011;67933;51.060;3.638;2023-03-12T04:12:01;10.73;;;5.78;;
78612;SDS011;67933;51.060;3.638;2023-03-12T04:14:26;11.10;;;5.13;;
78612;SDS011;67933;51.060;3.638;2023-03-12T04:16:52;14.30;;;5.47;;
78612;SDS011;67933;51.060;3.638;2023-03-12T04:19:17;11.55;;;5.82;;
78612;SDS011;67933;51.060;3.638;2023-03-12T04:21:43;12.85;;;6.85;;
78612;SDS011;67933;51.060;3.638;2023-03-12T04:24:11;11.32;;;6.57;;
78612;SDS011;67933;51.060;3.638;2023-03-12T04:26:39;17.08;;;8.10;;
78612;SDS011;67933;51.060;3.638;2023-03-12T04:29:05;15.55;;;7.03;;
78612;SDS011;67933;51.060;3.638;2023-03-12T04:31:30;13.75;;;7.63;;
78612;SDS011;67933;51.060;3.638;2023-03-12T04:33:56;17.08;;;7.80;;
78612;SDS011;67933;51.060;3.638;2023-03-12T04:36:21;14.95;;;8.13;;
78612;SDS011;67933;51.060;3.638;2023-03-12T04:38:47;20.70;;;9.82;;
78612;SDS011;67933;51.060;3.638;2023-03-12T04:41:13;17.45;;;8.52;;
78612;SDS011;67933;51.060;3.638;2023-03-12T04:43:39;21.25;;;9.65;;
78612;SDS011;67933;51.060;3.638;2023-03-12T04:46:04;16.48;;;8.38;;
78612;SDS011;67933;51.060;3.638;2023-03-12T04:48:30;17.10;;;9.05;;
78612;SDS011;67933;51.060;3.638;2023-03-12T04:50:57;18.00;;;8.63;;
78612;SDS011;67933;51.060;3.638;2023-03-12T04:53:22;15.18;;;8.30;;
78612;SDS011;67933;51.060;3.638;2023-03-12T04:55:49;17.70;;;10.00;;
78612;SDS011;67933;51.060;3.638;2023-03-12T04:58:14;18.25;;;8.90;;
78612;SDS011;67933;51.060;3.638;2023-03-12T05:00:40;22.27;;;10.10;;
78612;SDS011;67933;51.060;3.638;2023-03-12T05:03:06;19.50;;;10.07;;
78612;SDS011;67933;51.060;3.638;2023-03-12T05:05:32;17.88;;;9.85;;
78612;SDS011;67933;51.060;3.638;2023-03-12T05:07:58;25.33;;;11.40;;
78612;SDS011;67933;51.060;3.638;2023-03-12T05:10:23;21.10;;;10.98;;
78612;SDS011;67933;51.060;3.638;2023-03-12T05:12:49;20.70;;;10.50;;
78612;SDS011;67933;51.060;3.638;2023-03-12T05:15:14;18.73;;;10.65;;
78612;SDS011;67933;51.060;3.638;2023-03-12T05:17:41;23.98;;;9.68;;
78612;SDS011;67933;51.060;3.638;2023-03-12T05:20:08;27.30;;;11.27;;
78612;SDS011;67933;51.060;3.638;2023-03-12T05:22:38;23.30;;;12.13;;
78612;SDS011;67933;51.060;3.638;2023-03-12T05:25:03;24.85;;;12.48;;
78612;SDS011;67933;51.060;3.638;2023-03-12T05:27:30;26.25;;;11.60;;
78612;SDS011;67933;51.060;3.638;2023-03-12T05:29:55;24.42;;;12.27;;
78612;SDS011;67933;51.060;3.638;2023-03-12T05:32:21;22.40;;;12.10;;
78612;SDS011;67933;51.060;3.638;2023-03-12T05:34:46;27.58;;;13.05;;
78612;SDS011;67933;51.060;3.638;2023-03-12T05:37:14;26.40;;;12.77;;
78612;SDS011;67933;51.060;3.638;2023-03-12T05:39:40;25.13;;;12.98;;
78612;SDS011;67933;51.060;3.638;2023-03-12T05:42:11;29.52;;;13.60;;
78612;SDS011;67933;51.060;3.638;2023-03-12T05:44:37;33.97;;;14.40;;
78612;SDS011;67933;51.060;3.638;2023-03-12T05:47:03;33.22;;;14.15;;
78612;SDS011;67933;51.060;3.638;2023-03-12T05:49:29;30.90;;;14.43;;
78612;SDS011;67933;51.060;3.638;2023-03-12T05:51:55;39.58;;;13.80;;
78612;SDS011;67933;51.060;3.638;2023-03-12T05:54:21;30.58;;;13.57;;
78612;SDS011;67933;51.060;3.638;2023-03-12T05:56:47;27.13;;;13.95;;
78612;SDS011;67933;51.060;3.638;2023-03-12T05:59:12;35.20;;;13.73;;
78612;SDS011;67933;51.060;3.638;2023-03-12T06:01:38;33.50;;;13.60;;
78612;SDS011;67933;51.060;3.638;2023-03-12T06:04:04;41.95;;;16.02;;
78612;SDS011;67933;51.060;3.638;2023-03-12T06:06:30;32.25;;;14.10;;
78612;SDS011;67933;51.060;3.638;2023-03-12T06:08:57;25.83;;;13.75;;
78612;SDS011;67933;51.060;3.638;2023-03-12T06:11:22;33.13;;;14.25;;
78612;SDS011;67933;51.060;3.638;2023-03-12T06:13:48;32.90;;;14.13;;
78612;SDS011;67933;51.060;3.638;2023-03-12T06:16:17;32.92;;;14.75;;
78612;SDS011;67933;51.060;3.638;2023-03-12T06:18:45;32.53;;;14.60;;
78612;SDS011;67933;51.060;3.638;2023-03-12T06:21:12;33.10;;;14.07;;
78612;SDS011;67933;51.060;3.638;2023-03-12T06:23:39;38.30;;;15.60;;
78612;SDS011;67933;51.060;3.638;2023-03-12T06:26:06;31.67;;;14.40;;
78612;SDS011;67933;51.060;3.638;2023-03-12T06:28:33;42.20;;;16.98;;
78612;SDS011;67933;51.060;3.638;2023-03-12T06:30:58;33.65;;;15.73;;
78612;SDS011;67933;51.060;3.638;2023-03-12T06:33:24;38.55;;;16.10;;
78612;SDS011;67933;51.060;3.638;2023-03-12T06:35:52;49.70;;;16.98;;
78612;SDS011;67933;51.060;3.638;2023-03-12T06:38:21;36.13;;;15.57;;
78612;SDS011;67933;51.060;3.638;2023-03-12T06:40:57;44.35;;;16.48;;
78612;SDS011;67933;51.060;3.638;2023-03-12T06:43:25;37.95;;;14.45;;
78612;SDS011;67933;51.060;3.638;2023-03-12T06:45:53;39.45;;;15.85;;
78612;SDS011;67933;51.060;3.638;2023-03-12T06:48:19;37.10;;;15.30;;
78612;SDS011;67933;51.060;3.638;2023-03-12T06:50:44;49.75;;;16.13;;
78612;SDS011;67933;51.060;3.638;2023-03-12T06:53:10;34.97;;;14.68;;
78612;SDS011;67933;51.060;3.638;2023-03-12T06:55:38;45.25;;;14.85;;
78612;SDS011;67933;51.060;3.638;2023-03-12T06:58:04;36.40;;;14.75;;
78612;SDS011;67933;51.060;3.638;2023-03-12T07:00:31;40.05;;;15.63;;
78612;SDS011;67933;51.060;3.638;2023-03-12T07:02:57;42.80;;;15.98;;
78612;SDS011;67933;51.060;3.638;2023-03-12T07:05:23;39.92;;;14.90;;
78612;SDS011;67933;51.060;3.638;2023-03-12T07:07:49;41.15;;;14.15;;
78612;SDS011;67933;51.060;3.638;2023-03-12T07:10:15;40.05;;;14.20;;
78612;SDS011;67933;51.060;3.638;2023-03-12T07:12:40;42.85;;;13.63;;
78612;SDS011;67933;51.060;3.638;2023-03-12T07:15:06;42.60;;;13.43;;
78612;SDS011;67933;51.060;3.638;2023-03-12T07:17:31;38.70;;;11.73;;
78612;SDS011;67933;51.060;3.638;2023-03-12T07:19:57;42.53;;;13.00;;
78612;SDS011;67933;51.060;3.638;2023-03-12T07:22:22;33.42;;;11.60;;
78612;SDS011;67933;51.060;3.638;2023-03-12T07:24:48;38.22;;;11.25;;
78612;SDS011;67933;51.060;3.638;2023-03-12T07:27:15;32.22;;;11.95;;
78612;SDS011;67933;51.060;3.638;2023-03-12T07:29:40;31.23;;;11.27;;
78612;SDS011;67933;51.060;3.638;2023-03-12T07:32:06;29.20;;;9.80;;
78612;SDS011;67933;51.060;3.638;2023-03-12T07:34:31;28.10;;;9.38;;
78612;SDS011;67933;51.060;3.638;2023-03-12T07:36:57;32.35;;;9.27;;
78612;SDS011;67933;51.060;3.638;2023-03-12T07:39:22;26.15;;;10.98;;
78612;SDS011;67933;51.060;3.638;2023-03-12T07:41:48;32.28;;;8.45;;
78612;SDS011;67933;51.060;3.638;2023-03-12T07:44:13;24.70;;;8.43;;
78612;SDS011;67933;51.060;3.638;2023-03-12T07:46:39;23.05;;;7.68;;
78612;SDS011;67933;51.060;3.638;2023-03-12T07:49:04;27.15;;;8.00;;
78612;SDS011;67933;51.060;3.638;2023-03-12T07:51:30;23.90;;;7.50;;
78612;SDS011;67933;51.060;3.638;2023-03-12T07:53:56;26.75;;;8.50;;
78612;SDS011;67933;51.060;3.638;2023-03-12T07:56:22;25.77;;;6.65;;
78612;SDS011;67933;51.060;3.638;2023-03-12T07:58:47;25.10;;;7.10;;
78612;SDS011;67933;51.060;3.638;2023-03-12T08:01:13;31.20;;;6.70;;
78612;SDS011;67933;51.060;3.638;2023-03-12T08:03:38;27.92;;;7.57;;
78612;SDS011;67933;51.060;3.638;2023-03-12T08:06:04;27.10;;;5.75;;
78612;SDS011;67933;51.060;3.638;2023-03-12T08:08:30;23.13;;;5.97;;
78612;SDS011;67933;51.060;3.638;2023-03-12T08:10:56;26.85;;;6.97;;
78612;SDS011;67933;51.060;3.638;2023-03-12T08:13:23;17.30;;;5.30;;
78612;SDS011;67933;51.060;3.638;2023-03-12T08:15:49;17.45;;;4.88;;
78612;SDS011;67933;51.060;3.638;2023-03-12T08:18:17;21.85;;;5.47;;
78612;SDS011;67933;51.060;3.638;2023-03-12T08:20:48;19.88;;;5.13;;
78612;SDS011;67933;51.060;3.638;2023-03-12T08:23:15;25.52;;;5.53;;
78612;SDS011;67933;51.060;3.638;2023-03-12T08:25:40;22.33;;;5.47;;
78612;SDS011;67933;51.060;3.638;2023-03-12T08:28:08;19.20;;;4.18;;
78612;SDS011;67933;51.060;3.638;2023-03-12T08:30:33;24.30;;;4.07;;
78612;SDS011;67933;51.060;3.638;2023-03-12T08:32:59;21.67;;;4.00;;
78612;SDS011;67933;51.060;3.638;2023-03-12T08:35:24;22.58;;;3.70;;
78612;SDS011;67933;51.060;3.638;2023-03-12T08:37:50;22.95;;;3.50;;
78612;SDS011;67933;51.060;3.638;2023-03-12T08:40:15;24.70;;;5.40;;
78612;SDS011;67933;51.060;3.638;2023-03-12T08:42:41;27.38;;;4.53;;
78612;SDS011;67933;51.060;3.638;2023-03-12T08:45:08;19.45;;;4.05;;
78612;SDS011;67933;51.060;3.638;2023-03-12T08:47:35;22.67;;;3.95;;
78612;SDS011;67933;51.060;3.638;2023-03-12T08:50:01;21.42;;;4.22;;
78612;SDS011;67933;51.060;3.638;2023-03-12T08:52:27;32.75;;;5.25;;
78612;SDS011;67933;51.060;3.638;2023-03-12T08:54:52;27.42;;;5.03;;
78612;SDS011;67933;51.060;3.638;2023-03-12T08:57:18;26.85;;;4.70;;
78612;SDS011;67933;51.060;3.638;2023-03-12T08:59:43;28.73;;;5.45;;
78612;SDS011;67933;51.060;3.638;2023-03-12T09:02:11;20.15;;;3.85;;
78612;SDS011;67933;51.060;3.638;2023-03-12T09:04:37;23.30;;;4.90;;
78612;SDS011;67933;51.060;3.638;2023-03-12T09:07:03;23.35;;;3.72;;
78612;SDS011;67933;51.060;3.638;2023-03-12T09:09:28;25.13;;;5.13;;
78612;SDS011;67933;51.060;3.638;2023-03-12T09:11:54;24.02;;;4.70;;
78612;SDS011;67933;51.060;3.638;2023-03-12T09:14:20;22.33;;;5.35;;
78612;SDS011;67933;51.060;3.638;2023-03-12T09:16:45;25.60;;;4.90;;
78612;SDS011;67933;51.060;3.638;2023-03-12T09:19:11;22.75;;;4.32;;
78612;SDS011;67933;51.060;3.638;2023-03-12T09:21:39;20.73;;;4.70;;
78612;SDS011;67933;51.060;3.638;2023-03-12T09:24:05;19.52;;;3.95;;
78612;SDS011;67933;51.060;3.638;2023-03-12T09:26:31;19.77;;;4.80;;
78612;SDS011;67933;51.060;3.638;2023-03-12T09:28:57;22.38;;;4.45;;
78612;SDS011;67933;51.060;3.638;2023-03-12T09:31:23;21.88;;;4.50;;
78612;SDS011;67933;51.060;3.638;2023-03-12T09:33:49;23.17;;;4.38;;
78612;SDS011;67933;51.060;3.638;2023-03-12T09:36:15;26.17;;;4.85;;
78612;SDS011;67933;51.060;3.638;2023-03-12T09:38:40;26.73;;;4.82;;
78612;SDS011;67933;51.060;3.638;2023-03-12T09:41:11;28.75;;;4.97;;
78612;SDS011;67933;51.060;3.638;2023-03-12T09:43:42;24.63;;;4.57;;
78612;SDS011;67933;51.060;3.638;2023-03-12T09:46:18;23.55;;;5.63;;
78612;SDS011;67933;51.060;3.638;2023-03-12T09:48:55;28.20;;;4.55;;
78612;SDS011;67933;51.060;3.638;2023-03-12T09:51:44;24.95;;;4.25;;
78612;SDS011;67933;51.060;3.638;2023-03-12T09:54:31;22.90;;;4.47;;
78612;SDS011;67933;51.060;3.638;2023-03-12T09:57:04;19.13;;;3.78;;
78612;SDS011;67933;51.060;3.638;2023-03-12T09:59:36;17.20;;;3.47;;
78612;SDS011;67933;51.060;3.638;2023-03-12T10:02:02;25.25;;;3.75;;
78612;SDS011;67933;51.060;3.638;2023-03-12T10:05:06;25.35;;;4.55;;
78612;SDS011;67933;51.060;3.638;2023-03-12T10:07:35;27.80;;;4.40;;
78612;SDS011;67933;51.060;3.638;2023-03-12T10:10:12;22.15;;;4.53;;
78612;SDS011;67933;51.060;3.638;2023-03-12T10:18:33;22.58;;;4.57;;
78612;SDS011;67933;51.060;3.638;2023-03-12T10:26:37;21.00;;;4.47;;
78612;SDS011;67933;51.060;3.638;2023-03-12T10:31:50;20.98;;;4.78;;
78612;SDS011;67933;51.060;3.638;2023-03-12T10:36:55;20.75;;;4.20;;
78612;SDS011;67933;51.060;3.638;2023-03-12T10:39:24;20.08;;;4.22;;
78612;SDS011;67933;51.060;3.638;2023-03-12T10:41:49;22.55;;;4.22;;
78612;SDS011;67933;51.060;3.638;2023-03-12T10:44:18;13.15;;;4.05;;
78612;SDS011;67933;51.060;3.638;2023-03-12T10:47:00;17.88;;;3.40;;
78612;SDS011;67933;51.060;3.638;2023-03-12T10:49:34;21.50;;;4.60;;
78612;SDS011;67933;51.060;3.638;2023-03-12T10:54:39;19.60;;;3.65;;
78612;SDS011;67933;51.060;3.638;2023-03-12T10:57:05;19.45;;;3.35;;
78612;SDS011;67933;51.060;3.638;2023-03-12T10:59:36;21.60;;;4.22;;
78612;SDS011;67933;51.060;3.638;2023-03-12T11:02:23;15.70;;;3.40;;
78612;SDS011;67933;51.060;3.638;2023-03-12T11:04:57;16.13;;;3.15;;
78612;SDS011;67933;51.060;3.638;2023-03-12T11:12:31;16.98;;;3.67;;
78612;SDS011;67933;51.060;3.638;2023-03-12T11:15:00;17.48;;;3.47;;
78612;SDS011;67933;51.060;3.638;2023-03-12T11:17:46;16.50;;;3.60;;
78612;SDS011;67933;51.060;3.638;2023-03-12T11:20:28;16.58;;;3.08;;
78612;SDS011;67933;51.060;3.638;2023-03-12T11:22:54;16.63;;;3.50;;
78612;SDS011;67933;51.060;3.638;2023-03-12T11:25:22;16.58;;;3.85;;
78612;SDS011;67933;51.060;3.638;2023-03-12T11:27:58;15.75;;;4.05;;
78612;SDS011;67933;51.060;3.638;2023-03-12T11:30:27;16.83;;;3.33;;
78612;SDS011;67933;51.060;3.638;2023-03-12T11:33:00;25.10;;;3.72;;
78612;SDS011;67933;51.060;3.638;2023-03-12T11:35:33;22.70;;;3.90;;
78612;SDS011;67933;51.060;3.638;2023-03-12T11:38:19;20.63;;;3.50;;
78612;SDS011;67933;51.060;3.638;2023-03-12T11:46:26;18.52;;;5.10;;
78612;SDS011;67933;51.060;3.638;2023-03-12T12:18:56;15.80;;;3.35;;
78612;SDS011;67933;51.060;3.638;2023-03-12T12:21:41;17.65;;;3.33;;
78612;SDS011;67933;51.060;3.638;2023-03-12T12:29:31;13.10;;;3.50;;
78612;SDS011;67933;51.060;3.638;2023-03-12T12:32:00;14.13;;;2.92;;
78612;SDS011;67933;51.060;3.638;2023-03-12T12:37:20;15.93;;;3.42;;
78612;SDS011;67933;51.060;3.638;2023-03-12T12:39:51;17.80;;;2.70;;
78612;SDS011;67933;51.060;3.638;2023-03-12T12:42:25;10.85;;;2.30;;
78612;SDS011;67933;51.060;3.638;2023-03-12T12:44:57;17.88;;;3.00;;
78612;SDS011;67933;51.060;3.638;2023-03-12T12:47:34;15.10;;;2.80;;
78612;SDS011;67933;51.060;3.638;2023-03-12T12:50:10;20.13;;;3.45;;
78612;SDS011;67933;51.060;3.638;2023-03-12T12:52:40;16.10;;;3.28;;
78612;SDS011;67933;51.060;3.638;2023-03-12T12:55:39;17.90;;;3.08;;
78612;SDS011;67933;51.060;3.638;2023-03-12T12:58:12;14.45;;;3.10;;
78612;SDS011;67933;51.060;3.638;2023-03-12T13:00:46;20.48;;;3.47;;
78612;SDS011;67933;51.060;3.638;2023-03-12T13:03:18;17.48;;;3.03;;
78612;SDS011;67933;51.060;3.638;2023-03-12T13:05:47;15.18;;;3.45;;
78612;SDS011;67933;51.060;3.638;2023-03-12T13:11:30;15.35;;;3.13;;
78612;SDS011;67933;51.060;3.638;2023-03-12T13:16:34;19.42;;;2.75;;
78612;SDS011;67933;51.060;3.638;2023-03-12T13:21:46;15.23;;;2.65;;
78612;SDS011;67933;51.060;3.638;2023-03-12T13:24:55;14.82;;;3.00;;
78612;SDS011;67933;51.060;3.638;2023-03-12T13:27:36;15.88;;;2.80;;
78612;SDS011;67933;51.060;3.638;2023-03-12T13:45:31;19.50;;;3.17;;
78612;SDS011;67933;51.060;3.638;2023-03-12T13:48:00;20.25;;;3.50;;
78612;SDS011;67933;51.060;3.638;2023-03-12T13:50:27;20.30;;;3.72;;
78612;SDS011;67933;51.060;3.638;2023-03-12T13:53:02;19.67;;;3.35;;
78612;SDS011;67933;51.060;3.638;2023-03-12T13:55:33;17.08;;;3.58;;
78612;SDS011;67933;51.060;3.638;2023-03-12T13:58:06;16.17;;;2.88;;
78612;SDS011;67933;51.060;3.638;2023-03-12T14:00:52;13.82;;;2.88;;
78612;SDS011;67933;51.060;3.638;2023-03-12T14:03:22;16.98;;;3.10;;
78612;SDS011;67933;51.060;3.638;2023-03-12T14:05:54;18.52;;;3.08;;
78612;SDS011;67933;51.060;3.638;2023-03-12T14:08:35;17.50;;;2.70;;
78612;SDS011;67933;51.060;3.638;2023-03-12T14:17:20;13.38;;;2.88;;
78612;SDS011;67933;51.060;3.638;2023-03-12T14:19:55;17.13;;;3.10;;
78612;SDS011;67933;51.060;3.638;2023-03-12T14:22:30;17.25;;;3.33;;
78612;SDS011;67933;51.060;3.638;2023-03-12T14:25:00;20.00;;;2.95;;
78612;SDS011;67933;51.060;3.638;2023-03-12T14:27:38;23.15;;;4.20;;
78612;SDS011;67933;51.060;3.638;2023-03-12T14:30:23;17.23;;;3.38;;
78612;SDS011;67933;51.060;3.638;2023-03-12T14:32:55;21.73;;;4.25;;
78612;SDS011;67933;51.060;3.638;2023-03-12T14:35:34;17.85;;;2.95;;
78612;SDS011;67933;51.060;3.638;2023-03-12T14:43:37;16.60;;;2.85;;
78612;SDS011;67933;51.060;3.638;2023-03-12T14:46:04;17.80;;;3.65;;
78612;SDS011;67933;51.060;3.638;2023-03-12T14:48:38;19.65;;;2.80;;
78612;SDS011;67933;51.060;3.638;2023-03-12T14:51:05;13.20;;;2.72;;
78612;SDS011;67933;51.060;3.638;2023-03-12T14:53:51;17.08;;;3.67;;
78612;SDS011;67933;51.060;3.638;2023-03-12T14:56:30;19.48;;;3.47;;
78612;SDS011;67933;51.060;3.638;2023-03-12T14:58:59;18.38;;;2.95;;
78612;SDS011;67933;51.060;3.638;2023-03-12T15:01:43;18.45;;;2.85;;
78612;SDS011;67933;51.060;3.638;2023-03-12T15:04:13;16.75;;;2.97;;
78612;SDS011;67933;51.060;3.638;2023-03-12T15:06:43;21.52;;;3.28;;
78612;SDS011;67933;51.060;3.638;2023-03-12T15:09:15;19.73;;;2.95;;
78612;SDS011;67933;51.060;3.638;2023-03-12T15:11:43;19.85;;;3.55;;
78612;SDS011;67933;51.060;3.638;2023-03-12T15:14:26;22.27;;;3.65;;
78612;SDS011;67933;51.060;3.638;2023-03-12T15:16:54;23.08;;;3.90;;
78612;SDS011;67933;51.060;3.638;2023-03-12T15:19:22;20.75;;;3.63;;
78612;SDS011;67933;51.060;3.638;2023-03-12T15:21:52;16.55;;;3.30;;
78612;SDS011;67933;51.060;3.638;2023-03-12T15:24:18;19.45;;;3.22;;
78612;SDS011;67933;51.060;3.638;2023-03-12T15:26:43;21.65;;;3.50;;
78612;SDS011;67933;51.060;3.638;2023-03-12T15:31:52;17.33;;;3.10;;
78612;SDS011;67933;51.060;3.638;2023-03-12T15:34:29;21.98;;;4.90;;
78612;SDS011;67933;51.060;3.638;2023-03-12T15:36:56;18.15;;;3.85;;
78612;SDS011;67933;51.060;3.638;2023-03-12T15:42:00;17.75;;;2.58;;
78612;SDS011;67933;51.060;3.638;2023-03-12T15:44:41;21.02;;;3.92;;
78612;SDS011;67933;51.060;3.638;2023-03-12T15:47:10;21.17;;;3.22;;
78612;SDS011;67933;51.060;3.638;2023-03-12T15:49:39;25.33;;;3.83;;
78612;SDS011;67933;51.060;3.638;2023-03-12T15:54:57;15.98;;;4.35;;
78612;SDS011;67933;51.060;3.638;2023-03-12T15:57:48;19.88;;;3.92;;
78612;SDS011;67933;51.060;3.638;2023-03-12T16:01:04;17.30;;;2.63;;
78612;SDS011;67933;51.060;3.638;2023-03-12T16:03:14;19.02;;;3.00;;
78612;SDS011;67933;51.060;3.638;2023-03-12T16:05:41;23.17;;;3.42;;
78612;SDS011;67933;51.060;3.638;2023-03-12T16:11:15;16.13;;;2.70;;
78612;SDS011;67933;51.060;3.638;2023-03-12T16:13:43;23.27;;;4.85;;
78612;SDS011;67933;51.060;3.638;2023-03-12T16:16:10;18.38;;;3.28;;
78612;SDS011;67933;51.060;3.638;2023-03-12T16:18:37;15.20;;;3.95;;
78612;SDS011;67933;51.060;3.638;2023-03-12T16:21:03;16.52;;;3.53;;
78612;SDS011;67933;51.060;3.638;2023-03-12T16:23:29;31.17;;;5.28;;
78612;SDS011;67933;51.060;3.638;2023-03-12T16:25:55;21.60;;;5.05;;
78612;SDS011;67933;51.060;3.638;2023-03-12T16:30:48;14.00;;;2.42;;
78612;SDS011;67933;51.060;3.638;2023-03-12T16:33:16;14.15;;;3.13;;
78612;SDS011;67933;51.060;3.638;2023-03-12T16:35:43;17.48;;;3.85;;
78612;SDS011;67933;51.060;3.638;2023-03-12T16:38:08;21.95;;;6.22;;
78612;SDS011;67933;51.060;3.638;2023-03-12T16:40:35;17.48;;;3.83;;
78612;SDS011;67933;51.060;3.638;2023-03-12T16:45:30;16.65;;;3.28;;
78612;SDS011;67933;51.060;3.638;2023-03-12T16:47:59;15.55;;;3.67;;
78612;SDS011;67933;51.060;3.638;2023-03-12T16:50:26;19.08;;;3.28;;